Bogotol, Russia
Current Conditions -  °F | °C
As of 6:00 AM on Saturday 20 Dec 2014 (Local Time) from UNKL Reporting Station
Blowing Snow Blowing Snow  
Wind Chill: 14°   Ceiling: 8300
Heat Index: 27°   Visibility: 6mi
Dew Point: 10°   Wind: 16mph
Humidity: 51%   Direction: 270°W
Pressure: 30.45"   Gusts: 22mph
Location:  56.21°N, 89.52°E
Report Text: UNKL 192300Z 27007G10MPS 9000 -SHSN DRSN SCT033CB OVC083M03/M12 Q1031 WS RWY29 TEMPO 26010G15MPS RMK QFE747 29////55
Loading
Personal Weather Stations






























Interactive Weather Map New forecast layout! Learn more

10-Day Weather Forecast

Advertisements
Track Severe Weather on mobile